createdAt,value
2023-04-16T00:00:58.013Z,37.18
2023-04-16T00:02:01.887Z,37.18
2023-04-16T00:03:05.812Z,37.19
2023-04-16T00:04:09.872Z,37.17
2023-04-16T00:05:14.588Z,37.19
2023-04-16T00:06:18.238Z,37.17
2023-04-16T00:07:21.904Z,37.11
2023-04-16T00:08:25.548Z,37.18
2023-04-16T00:09:29.250Z,37.21
2023-04-16T00:10:32.951Z,37.22
2023-04-16T00:11:36.614Z,37.24
2023-04-16T00:12:40.290Z,37.23
2023-04-16T00:13:43.953Z,37.12
2023-04-16T00:14:47.593Z,37.25
2023-04-16T00:15:52.908Z,37.24
2023-04-16T00:16:56.563Z,37.25
2023-04-16T00:18:00.247Z,37.24
2023-04-16T00:19:03.883Z,37.24
2023-04-16T00:20:08.581Z,37.24
2023-04-16T00:21:12.250Z,37.24
2023-04-16T00:22:15.921Z,37.27
2023-04-16T00:23:19.567Z,37.27
2023-04-16T00:24:23.186Z,37.29
2023-04-16T00:25:26.790Z,37.30
2023-04-16T00:26:30.561Z,37.30
2023-04-16T00:27:34.278Z,37.31
2023-04-16T00:28:38.181Z,37.32
2023-04-16T00:29:41.843Z,37.34
2023-04-16T00:30:45.533Z,37.34
2023-04-16T00:31:50.954Z,37.33
2023-04-16T00:32:54.669Z,37.26
2023-04-16T00:33:58.682Z,37.35
2023-04-16T00:35:02.296Z,37.36
2023-04-16T00:36:06.681Z,37.36
2023-04-16T00:37:10.403Z,37.30
2023-04-16T00:38:14.201Z,37.36
2023-04-16T00:39:17.860Z,37.41
2023-04-16T00:40:21.588Z,37.39
2023-04-16T00:41:25.535Z,37.41
2023-04-16T00:42:29.193Z,37.42
2023-04-16T00:43:32.849Z,37.43
2023-04-16T00:44:36.544Z,37.40
2023-04-16T00:45:40.237Z,37.41
2023-04-16T00:46:44.596Z,37.39
2023-04-16T00:47:50.189Z,37.38
2023-04-16T00:48:57.240Z,37.33
2023-04-16T00:50:01.012Z,37.33
2023-04-16T00:51:06.496Z,37.23
2023-04-16T00:52:12.231Z,37.33
2023-04-16T00:53:16.332Z,37.33
2023-04-16T00:54:20.294Z,37.32
2023-04-16T00:55:24.128Z,37.38
2023-04-16T00:56:27.899Z,37.37
2023-04-16T00:57:32.054Z,37.45
2023-04-16T00:58:36.138Z,37.47
2023-04-16T00:59:39.750Z,37.47
2023-04-16T01:00:43.677Z,37.50
2023-04-16T01:01:47.520Z,37.49
2023-04-16T01:02:53.155Z,37.38
2023-04-16T01:03:57.156Z,37.42
2023-04-16T01:05:02.079Z,37.42
2023-04-16T01:06:07.002Z,37.43
2023-04-16T01:07:10.642Z,37.42
2023-04-16T01:08:18.506Z,37.43
2023-04-16T01:09:23.402Z,37.46
2023-04-16T01:10:27.095Z,37.53
2023-04-16T01:11:30.746Z,37.53
2023-04-16T01:12:34.442Z,37.59
2023-04-16T01:13:38.366Z,37.51
2023-04-16T01:14:41.973Z,37.54
2023-04-16T01:15:45.782Z,37.50
2023-04-16T01:16:49.422Z,37.52
2023-04-16T01:17:54.740Z,37.49
2023-04-16T01:18:58.404Z,37.49
2023-04-16T01:20:02.209Z,37.53
2023-04-16T01:21:07.742Z,37.55
2023-04-16T01:22:11.414Z,37.57
2023-04-16T01:23:15.134Z,37.62
2023-04-16T01:24:18.726Z,37.64
2023-04-16T01:25:22.396Z,37.65
2023-04-16T01:26:26.013Z,37.59
2023-04-16T01:27:29.721Z,37.69
2023-04-16T01:28:33.406Z,37.72
2023-04-16T01:29:37.092Z,37.73
2023-04-16T01:30:40.853Z,37.67
2023-04-16T01:31:44.691Z,37.71
2023-04-16T01:32:48.551Z,37.73
2023-04-16T01:33:52.344Z,37.67
2023-04-16T01:34:56.045Z,37.73
2023-04-16T01:35:59.872Z,37.77
2023-04-16T01:37:06.159Z,37.78
2023-04-16T01:38:10.386Z,37.66
2023-04-16T01:39:14.052Z,37.70
2023-04-16T01:40:17.774Z,37.66
2023-04-16T01:41:21.503Z,37.68
2023-04-16T01:42:25.161Z,37.59
2023-04-16T01:43:28.850Z,37.54
2023-04-16T01:44:32.571Z,37.54
2023-04-16T01:45:36.575Z,37.51
2023-04-16T01:46:40.498Z,37.51
2023-04-16T01:47:44.511Z,37.40
2023-04-16T01:48:48.367Z,37.43
2023-04-16T01:49:52.179Z,37.47
2023-04-16T01:50:55.872Z,37.47
2023-04-16T01:51:59.587Z,37.37
2023-04-16T01:53:05.090Z,37.42
2023-04-16T01:54:09.113Z,37.43
2023-04-16T01:55:12.922Z,37.45
2023-04-16T01:56:16.588Z,37.48
2023-04-16T01:57:20.272Z,37.36
2023-04-16T01:58:23.985Z,37.34
2023-04-16T01:59:27.609Z,37.37
2023-04-16T02:00:31.379Z,37.31
2023-04-16T02:01:35.128Z,37.36
2023-04-16T02:02:38.985Z,37.41
2023-04-16T02:03:43.104Z,37.34
2023-04-16T02:04:47.132Z,37.40
2023-04-16T02:05:50.812Z,37.52
2023-04-16T02:06:54.412Z,37.40
2023-04-16T02:07:58.051Z,37.47
2023-04-16T02:09:03.480Z,37.42
2023-04-16T02:10:08.133Z,37.52
2023-04-16T02:11:11.961Z,37.43
2023-04-16T02:12:15.934Z,37.51
2023-04-16T02:13:19.932Z,37.60
2023-04-16T02:14:23.605Z,37.63
2023-04-16T02:15:27.320Z,37.71
2023-04-16T02:16:31.146Z,37.73
2023-04-16T02:17:34.887Z,37.76
2023-04-16T02:18:38.551Z,37.59
2023-04-16T02:19:42.218Z,37.72
2023-04-16T02:20:46.962Z,37.73
2023-04-16T02:21:52.077Z,37.50
2023-04-16T02:22:55.741Z,37.58
2023-04-16T02:23:59.350Z,37.62
2023-04-16T02:25:04.869Z,37.73
2023-04-16T02:26:08.692Z,37.79
2023-04-16T02:27:12.464Z,37.78
2023-04-16T02:28:17.950Z,37.73
2023-04-16T02:29:21.679Z,37.86
2023-04-16T02:30:25.517Z,37.68
2023-04-16T02:31:29.219Z,37.51
2023-04-16T02:32:32.926Z,37.58
2023-04-16T02:33:36.612Z,37.38
2023-04-16T02:34:40.419Z,37.48
2023-04-16T02:35:44.390Z,37.49
2023-04-16T02:36:48.071Z,37.61
2023-04-16T02:37:51.719Z,37.64
2023-04-16T02:38:55.379Z,37.56
2023-04-16T02:39:59.110Z,37.56
2023-04-16T02:41:04.493Z,37.73
2023-04-16T02:42:08.097Z,37.81
2023-04-16T02:43:11.784Z,37.86
2023-04-16T02:44:15.361Z,37.87
2023-04-16T02:45:19.114Z,37.88
2023-04-16T02:46:23.008Z,37.87
2023-04-16T02:47:26.887Z,37.88
2023-04-16T02:48:30.640Z,37.85
2023-04-16T02:49:34.353Z,37.81
2023-04-16T02:50:38.049Z,37.92
2023-04-16T02:51:41.823Z,37.92
2023-04-16T02:52:45.478Z,37.97
2023-04-16T02:53:49.118Z,37.96
2023-04-16T02:54:52.796Z,38.01
2023-04-16T02:55:57.210Z,37.88
2023-04-16T02:57:02.947Z,37.77
2023-04-16T02:58:06.610Z,37.74
2023-04-16T02:59:10.579Z,37.84
2023-04-16T03:00:14.896Z,37.85
2023-04-16T03:01:18.588Z,37.89
2023-04-16T03:02:22.380Z,37.84
2023-04-16T03:03:28.943Z,37.92
2023-04-16T03:04:34.260Z,37.72
2023-04-16T03:05:39.737Z,37.80
2023-04-16T03:06:43.988Z,37.75
2023-04-16T03:07:47.718Z,37.82
2023-04-16T03:08:51.402Z,37.87
2023-04-16T03:09:55.060Z,37.87
2023-04-16T03:10:58.728Z,37.76
2023-04-16T03:12:04.107Z,37.78
2023-04-16T03:13:08.360Z,37.85
2023-04-16T03:14:11.999Z,37.96
2023-04-16T03:15:15.668Z,37.95
2023-04-16T03:16:19.435Z,37.84
2023-04-16T03:17:23.227Z,37.80
2023-04-16T03:18:26.845Z,37.61
2023-04-16T03:19:30.662Z,37.32
2023-04-16T03:20:34.397Z,37.42
2023-04-16T03:21:38.021Z,37.70
2023-04-16T03:22:41.669Z,37.81
2023-04-16T03:23:45.340Z,37.75
2023-04-16T03:24:49.036Z,37.61
2023-04-16T03:25:52.842Z,37.39
2023-04-16T03:26:58.332Z,37.63
2023-04-16T03:28:03.727Z,37.76
2023-04-16T03:29:07.717Z,37.38
2023-04-16T03:30:13.878Z,37.69
2023-04-16T03:31:17.565Z,37.74
2023-04-16T03:32:21.237Z,37.73
2023-04-16T03:33:24.977Z,37.69
2023-04-16T03:34:28.686Z,37.72
2023-04-16T03:35:32.382Z,37.75
2023-04-16T03:36:36.065Z,37.76
2023-04-16T03:37:39.790Z,37.68
2023-04-16T03:38:43.384Z,37.38
2023-04-16T03:39:47.102Z,37.31
2023-04-16T03:40:50.724Z,37.41
2023-04-16T03:41:54.391Z,37.50
2023-04-16T03:42:58.119Z,37.49
2023-04-16T03:44:03.378Z,37.44
2023-04-16T03:45:07.906Z,37.43
2023-04-16T03:46:11.819Z,37.52
2023-04-16T03:47:15.761Z,37.58
2023-04-16T03:48:19.464Z,37.62
2023-04-16T03:49:23.158Z,37.66
2023-04-16T03:50:26.836Z,37.59
2023-04-16T03:51:30.575Z,37.66
2023-04-16T03:52:34.163Z,37.58
2023-04-16T03:53:37.862Z,37.54
2023-04-16T03:54:41.478Z,37.57
2023-04-16T03:55:45.179Z,37.54
2023-04-16T03:56:48.968Z,37.54
2023-04-16T03:57:52.859Z,37.64
2023-04-16T03:58:56.478Z,37.71
2023-04-16T04:00:01.813Z,37.74
2023-04-16T04:01:05.617Z,37.60
2023-04-16T04:02:09.389Z,37.63
2023-04-16T04:03:13.524Z,37.69
2023-04-16T04:04:18.059Z,37.75
2023-04-16T04:05:21.835Z,37.82
2023-04-16T04:06:25.622Z,37.84
2023-04-16T04:07:29.308Z,37.87
2023-04-16T04:08:33.100Z,37.86
2023-04-16T04:09:36.820Z,37.89
2023-04-16T04:10:40.436Z,37.86
2023-04-16T04:11:44.131Z,37.72
2023-04-16T04:12:48.106Z,37.84
2023-04-16T04:13:51.736Z,37.75
2023-04-16T04:14:55.522Z,37.84
2023-04-16T04:16:00.829Z,37.81
2023-04-16T04:17:04.496Z,37.86
2023-04-16T04:18:08.147Z,37.90
2023-04-16T04:19:12.184Z,37.77
2023-04-16T04:20:15.867Z,37.89
2023-04-16T04:21:19.571Z,37.91
2023-04-16T04:22:23.214Z,37.82
2023-04-16T04:23:26.835Z,37.87
2023-04-16T04:24:30.507Z,37.83
2023-04-16T04:25:34.188Z,37.94
2023-04-16T04:26:37.887Z,37.86
2023-04-16T04:27:41.696Z,37.97
2023-04-16T04:28:45.397Z,37.96
2023-04-16T04:29:49.014Z,38.04
2023-04-16T04:30:52.805Z,38.01
2023-04-16T04:31:58.191Z,38.08
2023-04-16T04:33:02.006Z,38.08
2023-04-16T04:34:05.781Z,38.08
2023-04-16T04:35:10.247Z,38.09
2023-04-16T04:36:13.865Z,38.07
2023-04-16T04:37:17.666Z,38.13
2023-04-16T04:38:21.322Z,37.98
2023-04-16T04:39:25.033Z,37.90
2023-04-16T04:40:28.805Z,38.01
2023-04-16T04:41:32.846Z,37.79
2023-04-16T04:42:36.603Z,37.89
2023-04-16T04:43:40.308Z,38.02
2023-04-16T04:44:43.957Z,38.02
2023-04-16T04:45:47.701Z,38.13
2023-04-16T04:46:51.439Z,38.21
2023-04-16T04:47:56.895Z,38.17
2023-04-16T04:49:00.661Z,38.23
2023-04-16T04:50:04.516Z,38.30
2023-04-16T04:51:08.213Z,38.26
2023-04-16T04:52:11.913Z,38.35
2023-04-16T04:53:15.587Z,38.42
2023-04-16T04:54:19.305Z,38.49
2023-04-16T04:55:22.993Z,38.37
2023-04-16T04:56:26.686Z,38.45
2023-04-16T04:57:30.364Z,38.58
2023-04-16T04:58:34.096Z,38.65
2023-04-16T04:59:37.747Z,38.35
2023-04-16T05:00:41.472Z,38.48
2023-04-16T05:01:45.251Z,38.19
2023-04-16T05:02:49.110Z,38.45
2023-04-16T05:03:54.574Z,38.30
2023-04-16T05:04:58.296Z,38.42
2023-04-16T05:06:01.924Z,38.47
2023-04-16T05:07:05.677Z,38.59
2023-04-16T05:08:09.370Z,38.47
2023-04-16T05:09:13.048Z,38.34
2023-04-16T05:10:16.828Z,38.30
2023-04-16T05:11:20.426Z,38.53
2023-04-16T05:12:24.060Z,38.56
2023-04-16T05:13:27.876Z,38.60
2023-04-16T05:14:31.474Z,38.70
2023-04-16T05:15:35.316Z,38.73
2023-04-16T05:16:39.279Z,38.78
2023-04-16T05:17:42.977Z,38.79
2023-04-16T05:18:46.646Z,38.66
2023-04-16T05:19:51.918Z,38.62
2023-04-16T05:20:55.503Z,38.64
2023-04-16T05:21:59.180Z,38.61
2023-04-16T05:23:02.884Z,38.57
2023-04-16T05:24:07.046Z,38.49
2023-04-16T05:25:10.960Z,38.21
2023-04-16T05:26:14.599Z,37.69
2023-04-16T05:27:18.360Z,37.91
2023-04-16T05:28:22.020Z,37.88
2023-04-16T05:29:25.700Z,37.73
2023-04-16T05:30:29.361Z,37.88
2023-04-16T05:31:33.281Z,37.99
2023-04-16T05:32:36.933Z,38.03
2023-04-16T05:33:40.602Z,37.76
2023-04-16T05:34:44.256Z,37.81
2023-04-16T05:35:49.714Z,37.66
2023-04-16T05:36:53.450Z,37.48
2023-04-16T05:37:57.108Z,37.69
2023-04-16T05:39:00.687Z,37.58
2023-04-16T05:40:04.317Z,37.57
2023-04-16T05:41:07.970Z,37.75
2023-04-16T05:42:11.675Z,37.82
2023-04-16T05:43:15.343Z,37.78
2023-04-16T05:44:18.914Z,37.56
2023-04-16T05:45:22.797Z,37.48
2023-04-16T05:46:26.532Z,37.37
2023-04-16T05:47:30.268Z,37.41
2023-04-16T05:48:34.039Z,37.39
2023-04-16T05:49:37.699Z,37.10
2023-04-16T05:50:41.390Z,37.30
2023-04-16T05:51:47.360Z,37.35
2023-04-16T05:52:51.064Z,37.38
2023-04-16T05:53:54.757Z,37.42
2023-04-16T05:54:58.467Z,37.38
2023-04-16T05:56:02.257Z,37.24
2023-04-16T05:57:05.920Z,37.50
2023-04-16T05:58:09.582Z,37.59
2023-04-16T05:59:13.443Z,37.31
2023-04-16T06:00:17.400Z,37.24
2023-04-16T06:01:22.055Z,37.55
2023-04-16T06:02:26.028Z,37.47
2023-04-16T06:03:29.819Z,37.59
2023-04-16T06:04:33.521Z,37.70
2023-04-16T06:05:37.112Z,37.74
2023-04-16T06:06:40.833Z,37.49
2023-04-16T06:07:46.244Z,37.65
2023-04-16T06:08:49.852Z,37.67
2023-04-16T06:09:53.606Z,37.75
2023-04-16T06:10:57.252Z,37.72
2023-04-16T06:12:01.241Z,37.75
2023-04-16T06:13:05.043Z,37.79
2023-04-16T06:14:08.735Z,37.82
2023-04-16T06:15:12.929Z,37.80
2023-04-16T06:16:16.555Z,37.76
2023-04-16T06:17:20.526Z,37.91
2023-04-16T06:18:24.302Z,37.65
2023-04-16T06:19:28.007Z,37.65
2023-04-16T06:20:31.778Z,37.75
2023-04-16T06:21:35.486Z,37.80
2023-04-16T06:22:39.275Z,37.95
2023-04-16T06:23:44.694Z,37.97
2023-04-16T06:24:48.422Z,38.01
2023-04-16T06:25:52.113Z,38.08
2023-04-16T06:26:55.864Z,37.97
2023-04-16T06:27:59.528Z,37.91
2023-04-16T06:29:03.182Z,38.05
2023-04-16T06:30:12.007Z,38.14
2023-04-16T06:31:15.786Z,38.27
2023-04-16T06:32:19.527Z,38.39
2023-04-16T06:33:23.422Z,38.39
2023-04-16T06:34:29.565Z,38.50
2023-04-16T06:35:33.316Z,38.61
2023-04-16T06:36:36.938Z,38.41
2023-04-16T06:37:40.668Z,38.44
2023-04-16T06:38:46.192Z,38.13
2023-04-16T06:39:49.850Z,38.18
2023-04-16T06:40:53.740Z,37.95
2023-04-16T06:41:57.604Z,38.14
2023-04-16T06:43:01.473Z,37.90
2023-04-16T06:44:05.166Z,38.35
2023-04-16T06:45:10.039Z,38.24
2023-04-16T06:46:13.622Z,38.45
2023-04-16T06:47:17.798Z,38.71
2023-04-16T06:48:21.563Z,38.50
2023-04-16T06:49:25.292Z,38.75
2023-04-16T06:50:29.098Z,38.73
2023-04-16T06:51:32.894Z,38.69
2023-04-16T06:52:36.887Z,38.92
2023-04-16T06:53:40.645Z,38.99
2023-04-16T06:54:45.965Z,38.92
2023-04-16T06:55:49.635Z,38.99
2023-04-16T06:56:53.240Z,38.91
2023-04-16T06:57:56.833Z,39.04
2023-04-16T06:59:00.654Z,38.79
2023-04-16T07:00:04.876Z,38.78
2023-04-16T07:01:08.577Z,38.75
2023-04-16T07:02:12.408Z,38.20
2023-04-16T07:03:16.188Z,38.60
2023-04-16T07:04:20.116Z,38.75
2023-04-16T07:05:23.743Z,38.42
2023-04-16T07:06:27.481Z,38.74
2023-04-16T07:07:31.216Z,38.64
2023-04-16T07:08:34.927Z,38.46
2023-04-16T07:09:38.558Z,38.70
2023-04-16T07:10:43.839Z,38.34
2023-04-16T07:11:47.639Z,38.52
2023-04-16T07:12:51.382Z,38.69
2023-04-16T07:13:55.112Z,38.80
2023-04-16T07:14:58.793Z,38.85
2023-04-16T07:16:02.481Z,38.95
2023-04-16T07:17:06.358Z,38.91
2023-04-16T07:18:10.074Z,38.76
2023-04-16T07:19:13.749Z,38.88
2023-04-16T07:20:17.463Z,38.78
2023-04-16T07:21:21.181Z,38.86
2023-04-16T07:22:24.808Z,38.79
2023-04-16T07:23:28.512Z,38.96
2023-04-16T07:24:32.216Z,38.88
2023-04-16T07:25:35.900Z,39.01
2023-04-16T07:26:41.269Z,39.05
2023-04-16T07:27:45.019Z,39.11
2023-04-16T07:28:48.763Z,38.97
2023-04-16T07:29:52.489Z,39.03
2023-04-16T07:30:56.171Z,39.12
2023-04-16T07:31:59.965Z,38.93
2023-04-16T07:33:04.650Z,39.14
2023-04-16T07:34:08.412Z,39.18
2023-04-16T07:35:12.153Z,39.22
2023-04-16T07:36:15.803Z,39.14
2023-04-16T07:37:19.450Z,39.20
2023-04-16T07:38:23.741Z,39.01
2023-04-16T07:39:27.499Z,38.78
2023-04-16T07:40:31.337Z,38.82
2023-04-16T07:41:35.020Z,38.25
2023-04-16T07:42:40.311Z,38.51
2023-04-16T07:43:43.973Z,38.40
2023-04-16T07:44:47.656Z,38.46
2023-04-16T07:45:51.241Z,38.42
2023-04-16T07:46:54.947Z,38.09
2023-04-16T07:47:58.618Z,38.05
2023-04-16T07:49:02.371Z,38.33
2023-04-16T07:50:06.953Z,38.48
2023-04-16T07:51:10.745Z,38.52
2023-04-16T07:52:14.625Z,38.54
2023-04-16T07:53:18.283Z,38.55
2023-04-16T07:54:21.902Z,38.40
2023-04-16T07:55:25.734Z,38.52
2023-04-16T07:56:29.404Z,38.54
2023-04-16T07:57:33.188Z,38.54
2023-04-16T07:58:38.447Z,38.44
2023-04-16T07:59:42.102Z,38.37
2023-04-16T08:00:45.800Z,37.97
2023-04-16T08:01:49.804Z,37.83
2023-04-16T08:02:53.890Z,37.57
2023-04-16T08:03:58.066Z,37.92
2023-04-16T08:05:01.910Z,38.11
2023-04-16T08:06:05.727Z,38.20
2023-04-16T08:07:09.424Z,38.24
2023-04-16T08:08:13.263Z,38.26
2023-04-16T08:09:16.917Z,38.31
2023-04-16T08:10:20.697Z,38.42
2023-04-16T08:11:25.083Z,38.24
2023-04-16T08:12:29.875Z,38.18
2023-04-16T08:13:33.713Z,38.31
2023-04-16T08:14:39.162Z,38.33
2023-04-16T08:15:42.847Z,38.34
2023-04-16T08:16:50.169Z,38.35
2023-04-16T08:17:53.923Z,38.48
2023-04-16T08:18:57.665Z,38.61
2023-04-16T08:20:01.560Z,38.47
2023-04-16T08:21:05.348Z,38.51
2023-04-16T08:22:09.118Z,38.62
2023-04-16T08:23:12.804Z,38.67
2023-04-16T08:24:16.583Z,38.76
2023-04-16T08:25:20.306Z,38.69
2023-04-16T08:26:23.995Z,38.80
2023-04-16T08:27:27.659Z,38.84
2023-04-16T08:28:31.461Z,38.81
2023-04-16T08:29:35.157Z,38.95
2023-04-16T08:30:40.439Z,39.00
2023-04-16T08:31:44.293Z,39.06
2023-04-16T08:32:50.049Z,38.51
2023-04-16T08:33:54.069Z,38.53
2023-04-16T08:34:58.270Z,38.50
2023-04-16T08:36:01.984Z,38.61
2023-04-16T08:37:05.699Z,38.16
2023-04-16T08:38:09.328Z,38.23
2023-04-16T08:39:13.485Z,38.41
2023-04-16T08:40:17.893Z,38.42
2023-04-16T08:41:24.326Z,38.41
2023-04-16T08:42:33.143Z,38.28
2023-04-16T08:43:39.022Z,38.50
2023-04-16T08:44:49.315Z,38.29
2023-04-16T08:45:56.798Z,38.11
2023-04-16T08:47:01.737Z,38.22
2023-04-16T08:48:07.323Z,38.34
2023-04-16T08:49:17.926Z,38.39
2023-04-16T08:50:25.463Z,38.38
2023-04-16T08:51:34.767Z,38.01
2023-04-16T08:52:44.019Z,38.30
2023-04-16T08:53:53.052Z,38.47
2023-04-16T08:55:04.714Z,38.56
2023-04-16T08:56:12.506Z,38.68
2023-04-16T08:57:20.938Z,38.51
2023-04-16T08:58:29.981Z,38.67
2023-04-16T08:59:34.034Z,38.65
2023-04-16T09:00:40.345Z,38.70
2023-04-16T09:01:46.357Z,38.69
2023-04-16T09:02:50.877Z,38.84
2023-04-16T09:03:55.343Z,38.92
2023-04-16T09:05:01.138Z,38.97
2023-04-16T09:06:07.159Z,38.88
2023-04-16T09:07:11.304Z,38.97
2023-04-16T09:08:15.182Z,39.01
2023-04-16T09:09:21.785Z,39.01
2023-04-16T09:10:27.605Z,39.03
2023-04-16T09:11:31.360Z,38.93
2023-04-16T09:12:36.366Z,38.62
2023-04-16T09:13:40.060Z,38.57
2023-04-16T09:14:43.892Z,38.71
2023-04-16T09:15:48.050Z,38.78
2023-04-16T09:16:54.410Z,38.68
2023-04-16T09:17:58.111Z,38.52
2023-04-16T09:19:01.942Z,38.63
2023-04-16T09:20:07.603Z,38.59
2023-04-16T09:21:11.765Z,38.72
2023-04-16T09:22:15.428Z,38.75
2023-04-16T09:23:19.195Z,38.63
2023-04-16T09:24:23.774Z,38.46
2023-04-16T09:25:27.619Z,38.36
2023-04-16T09:26:31.920Z,38.11
2023-04-16T09:27:36.049Z,38.01
2023-04-16T09:28:43.783Z,37.56
2023-04-16T09:29:47.390Z,37.92
2023-04-16T09:30:51.075Z,38.04
2023-04-16T09:32:05.641Z,38.27
2023-04-16T09:33:17.965Z,38.35
2023-04-16T09:34:21.585Z,38.41
2023-04-16T09:35:25.218Z,38.31
2023-04-16T09:36:28.960Z,38.39
2023-04-16T09:37:33.025Z,38.36
2023-04-16T09:38:49.492Z,38.37
2023-04-16T09:39:57.923Z,38.37
2023-04-16T09:41:08.138Z,38.43
2023-04-16T09:42:12.017Z,38.23
2023-04-16T09:43:16.980Z,38.33
2023-04-16T09:44:20.677Z,38.37
2023-04-16T09:45:24.447Z,38.48
2023-04-16T09:46:32.265Z,38.11
2023-04-16T09:47:44.689Z,38.27
2023-04-16T09:48:48.356Z,38.31
2023-04-16T09:49:52.051Z,38.34
2023-04-16T09:50:55.692Z,38.40
2023-04-16T09:51:59.381Z,38.44
2023-04-16T09:53:03.686Z,38.52
2023-04-16T09:54:07.615Z,38.37
2023-04-16T09:55:11.331Z,38.37
2023-04-16T09:56:14.998Z,38.39
2023-04-16T09:57:22.106Z,38.37
2023-04-16T09:58:25.889Z,38.37
2023-04-16T09:59:29.644Z,38.45
2023-04-16T10:00:33.298Z,38.45
2023-04-16T10:01:38.145Z,38.38
2023-04-16T10:02:43.551Z,38.19
2023-04-16T10:03:51.241Z,38.17
2023-04-16T10:04:55.747Z,38.22
2023-04-16T10:06:02.098Z,38.28
2023-04-16T10:07:07.333Z,38.34
2023-04-16T10:08:15.009Z,38.35
2023-04-16T10:09:18.583Z,38.24
2023-04-16T10:10:23.073Z,38.20
2023-04-16T10:11:26.750Z,38.13
2023-04-16T10:12:30.576Z,38.19
2023-04-16T10:13:34.240Z,38.22
2023-04-16T10:14:37.937Z,37.97
2023-04-16T10:15:42.452Z,37.92
2023-04-16T10:16:46.499Z,38.04
2023-04-16T10:17:53.133Z,38.12
2023-04-16T10:18:57.660Z,38.20
2023-04-16T10:20:02.442Z,38.24
2023-04-16T10:21:06.450Z,38.20
2023-04-16T10:22:10.598Z,38.26
2023-04-16T10:23:14.826Z,38.26
2023-04-16T10:24:20.810Z,38.17
2023-04-16T10:25:24.991Z,38.14
2023-04-16T10:26:30.306Z,38.13
2023-04-16T10:27:34.373Z,38.14
2023-04-16T10:28:38.463Z,37.89
2023-04-16T10:29:42.388Z,37.92
2023-04-16T10:30:49.249Z,37.91
2023-04-16T10:31:54.043Z,37.96
2023-04-16T10:33:00.696Z,37.81
2023-04-16T10:34:05.453Z,37.70
2023-04-16T10:35:09.714Z,37.82
2023-04-16T10:36:14.763Z,37.90
2023-04-16T10:37:18.429Z,37.87
2023-04-16T10:38:26.887Z,37.76
2023-04-16T10:39:30.587Z,37.90
2023-04-16T10:40:36.125Z,37.96
2023-04-16T10:41:40.391Z,37.94
2023-04-16T10:42:54.156Z,37.84
2023-04-16T10:44:06.397Z,37.50
2023-04-16T10:45:12.578Z,37.37
2023-04-16T10:46:20.836Z,37.39
2023-04-16T10:47:27.108Z,37.22
2023-04-16T10:48:42.359Z,37.37
2023-04-16T10:49:53.517Z,37.46
2023-04-16T10:50:58.249Z,37.49
2023-04-16T10:52:08.171Z,37.51
2023-04-16T10:53:25.862Z,37.62
2023-04-16T10:54:30.592Z,37.66
2023-04-16T10:55:34.228Z,37.68
2023-04-16T10:56:38.338Z,37.68
2023-04-16T10:57:42.026Z,37.59
2023-04-16T10:58:45.725Z,37.61
2023-04-16T10:59:50.540Z,37.62
2023-04-16T11:00:54.416Z,37.65
2023-04-16T11:02:00.633Z,37.58
2023-04-16T11:03:06.157Z,37.58
2023-04-16T11:04:40.412Z,37.57
2023-04-16T11:05:47.717Z,37.41
2023-04-16T11:07:03.201Z,37.57
2023-04-16T11:08:16.252Z,37.57
2023-04-16T11:10:00.711Z,37.45
2023-04-16T11:11:06.506Z,37.56
2023-04-16T11:12:12.903Z,37.55
2023-04-16T11:13:19.328Z,37.52
2023-04-16T11:14:22.962Z,37.56
2023-04-16T11:15:26.798Z,37.59
2023-04-16T11:16:33.433Z,37.59
2023-04-16T11:17:39.849Z,37.58
2023-04-16T11:18:50.877Z,37.59
2023-04-16T11:19:57.335Z,37.59
2023-04-16T11:21:01.318Z,37.64
2023-04-16T11:22:05.406Z,37.54
2023-04-16T11:23:12.103Z,37.65
2023-04-16T11:24:15.718Z,37.51
2023-04-16T11:25:22.746Z,37.52
2023-04-16T11:26:28.289Z,37.44
2023-04-16T11:27:32.439Z,37.46
2023-04-16T11:28:36.692Z,37.39
2023-04-16T11:29:40.317Z,37.48
2023-04-16T11:30:44.006Z,37.47
2023-04-16T11:31:51.938Z,37.50
2023-04-16T11:32:55.912Z,37.54
2023-04-16T11:33:59.749Z,37.57
2023-04-16T11:35:06.294Z,37.59
2023-04-16T11:36:10.186Z,37.59
2023-04-16T11:37:13.956Z,37.42
2023-04-16T11:38:19.801Z,37.57
2023-04-16T11:39:23.589Z,37.57
2023-04-16T11:40:31.225Z,37.58
2023-04-16T11:41:34.958Z,37.48
2023-04-16T11:42:39.288Z,37.48
2023-04-16T11:43:42.984Z,37.49
2023-04-16T11:44:46.744Z,37.51
2023-04-16T11:45:58.384Z,37.28
2023-04-16T11:47:07.410Z,37.50
2023-04-16T11:48:11.310Z,37.50
2023-04-16T11:49:15.018Z,37.52
2023-04-16T11:50:22.678Z,37.48
2023-04-16T11:51:26.480Z,37.42
2023-04-16T11:52:31.720Z,37.51
2023-04-16T11:53:35.484Z,37.47
2023-04-16T11:54:39.349Z,37.46
2023-04-16T11:55:45.154Z,37.34
2023-04-16T11:56:49.913Z,37.45
2023-04-16T11:57:53.556Z,37.43
2023-04-16T11:59:14.426Z,37.28
2023-04-16T12:00:18.472Z,37.37
2023-04-16T12:01:22.369Z,37.39
2023-04-16T12:02:39.248Z,37.42
2023-04-16T12:03:43.905Z,37.39
2023-04-16T12:04:48.032Z,37.36
2023-04-16T12:05:53.376Z,37.39
2023-04-16T12:07:14.783Z,37.41
2023-04-16T12:08:30.488Z,37.42
2023-04-16T12:09:34.436Z,37.36
2023-04-16T12:10:53.149Z,37.18
2023-04-16T12:11:56.768Z,37.34
2023-04-16T12:13:12.328Z,37.20
2023-04-16T12:14:16.049Z,37.34
2023-04-16T12:15:19.895Z,37.34
2023-04-16T12:16:26.125Z,37.36
2023-04-16T12:17:30.271Z,37.35
2023-04-16T12:18:34.095Z,37.31
2023-04-16T12:19:50.214Z,37.34
2023-04-16T12:20:55.682Z,37.36
2023-04-16T12:22:02.287Z,37.37
2023-04-16T12:23:05.954Z,37.37
2023-04-16T12:24:11.264Z,37.34
2023-04-16T12:25:16.159Z,37.33
2023-04-16T12:26:19.800Z,37.29
2023-04-16T12:27:23.481Z,37.35
2023-04-16T12:28:31.845Z,37.36
2023-04-16T12:29:35.491Z,37.37
2023-04-16T12:30:50.934Z,37.35
2023-04-16T12:31:55.023Z,37.38
2023-04-16T12:33:16.666Z,37.41
2023-04-16T12:34:21.046Z,37.33
2023-04-16T12:35:34.871Z,37.25
2023-04-16T12:36:40.290Z,37.28
2023-04-16T12:37:43.838Z,37.24
2023-04-16T12:38:47.542Z,37.27
2023-04-16T12:39:51.233Z,37.23
2023-04-16T12:40:54.970Z,37.29
2023-04-16T12:41:58.594Z,37.28
2023-04-16T12:43:02.294Z,37.12
2023-04-16T12:44:07.750Z,37.05
2023-04-16T12:45:11.502Z,37.01
2023-04-16T12:46:15.135Z,37.08
2023-04-16T12:47:18.841Z,37.14
2023-04-16T12:48:22.500Z,37.17
2023-04-16T12:49:26.255Z,37.21
2023-04-16T12:50:29.980Z,37.18
2023-04-16T12:51:33.953Z,37.13
2023-04-16T12:52:39.420Z,37.15
2023-04-16T12:53:43.107Z,37.17
2023-04-16T12:54:46.874Z,37.20
2023-04-16T12:55:50.614Z,37.23
2023-04-16T12:56:54.294Z,37.27
2023-04-16T12:57:57.962Z,37.13
2023-04-16T12:59:01.554Z,37.22
2023-04-16T13:00:06.108Z,37.20
2023-04-16T13:01:09.762Z,37.21
2023-04-16T13:02:13.784Z,37.21
2023-04-16T13:03:17.575Z,37.22
2023-04-16T13:04:24.189Z,37.20
2023-04-16T13:05:29.275Z,37.19
2023-04-16T13:06:32.997Z,37.25
2023-04-16T13:07:38.561Z,37.25
2023-04-16T13:08:42.331Z,37.27
2023-04-16T13:09:46.305Z,37.29
2023-04-16T13:10:50.196Z,37.26
2023-04-16T13:11:53.853Z,37.30
2023-04-16T13:12:57.537Z,37.27
2023-04-16T13:14:01.195Z,37.24
2023-04-16T13:15:05.292Z,37.14
2023-04-16T13:16:09.072Z,37.29
2023-04-16T13:17:12.889Z,37.28
2023-04-16T13:18:16.664Z,37.26
2023-04-16T13:19:20.324Z,37.22
2023-04-16T13:20:24.609Z,37.26
2023-04-16T13:21:28.724Z,37.25
2023-04-16T13:22:32.411Z,37.22
2023-04-16T13:23:38.065Z,37.22
2023-04-16T13:24:41.702Z,37.24
2023-04-16T13:25:45.408Z,37.22
2023-04-16T13:26:49.108Z,37.19
2023-04-16T13:27:52.777Z,37.18
2023-04-16T13:28:56.479Z,37.19
2023-04-16T13:30:00.135Z,37.18
2023-04-16T13:31:12.221Z,37.16
2023-04-16T13:32:16.034Z,37.13
2023-04-16T13:33:19.797Z,37.13
2023-04-16T13:34:23.672Z,37.11
2023-04-16T13:35:27.820Z,37.06
2023-04-16T13:36:31.570Z,37.05
2023-04-16T13:37:36.034Z,37.09
2023-04-16T13:38:41.392Z,37.09
2023-04-16T13:39:45.010Z,37.14
2023-04-16T13:40:48.828Z,37.15
2023-04-16T13:41:52.492Z,37.16
2023-04-16T13:42:56.182Z,37.17
2023-04-16T13:43:59.777Z,37.18
2023-04-16T13:45:03.596Z,37.16
2023-04-16T13:46:07.411Z,37.17
2023-04-16T13:47:11.324Z,37.18
2023-04-16T13:48:14.946Z,37.15
2023-04-16T13:49:18.575Z,37.16
2023-04-16T13:50:22.343Z,37.17
2023-04-16T13:51:26.247Z,37.15
2023-04-16T13:52:29.999Z,37.11
2023-04-16T13:53:33.704Z,37.13